Latest Coastal Weather Observations for Yanakie

IDV60701

Issued at 7:31 am EST Tuesday 4 August 2015 (issued every 10 minutes, with the page automatically refreshed every 10 minutes)

About coastal observations | Map of coastal stations | Coastal observations for VIC | Marine services | Other Formats
Station Details ID: 085301 Name: YANAKIE Lat: -38.81 Lon: 146.19 Height: 13.3 m
Data from the previous 72 hours. | See also: Recent months at Yanakie
Date/Time
EST
Temp

°C
Wind Pressure Rain
since 9am
mm
Weather Cloud Vis
km
Sea
Height
m
Swell
Dir
 
Speed
knots
Gust
knots
hPa Trend Height
m
Period
s
Dir
04/07:30am 5.1 NNW 11 14 1021.4 - 2.6 - - - - - - -
04/07:00am 5.0 NW 10 14 1021.6 - 2.6 - - - - - - -
04/06:30am 5.1 NW 11 16 1021.4 - 2.4 - - - - - - -
04/06:00am 3.4 NW 4 6 1021.2 - 2.4 Recent precip. - - - - - -
04/05:30am 4.6 NW 7 10 1021.2 - 2.4 - - - - - - -
04/05:00am 5.1 NW 13 18 1021.0 - 1.8 - - - - - - -
04/04:30am 5.0 NW 10 15 1020.9 - 1.8 - - - - - - -
04/04:00am 4.7 NNW 7 8 1021.0 - 1.6 - - - - - - -
04/03:30am 4.9 NW 11 15 1021.2 - 1.6 - - - - - - -
04/03:00am 4.5 NW 8 11 1021.3 - 1.2 - - - - - - -
04/02:30am 4.7 NW 8 10 1021.4 - 1.2 - - - - - - -
04/02:00am 4.9 NW 7 11 1021.6 - 1.2 - - - - - - -
04/01:30am 4.2 NNW 7 10 1021.5 - 1.2 - - - - - - -
04/01:00am 3.5 NW 6 7 1021.5 - 1.2 - - - - - - -
04/12:30am 4.9 NW 7 9 1021.8 - 1.2 - - - - - - -
04/12:00am 7.0 SW 12 16 1021.8 - 1.2 - - - - - - -
 
Date/Time
EST
Temp

°C
Wind Pressure Rain
since 9am
mm
Weather Cloud Vis
km
Sea
Height
m
Swell
Dir
 
Speed
knots
Gust
knots
hPa Trend Height
m
Period
s
Dir
03/11:30pm 6.0 W 7 10 1021.8 - 1.2 - - - - - - -
03/11:00pm 6.9 WSW 14 20 1021.9 - 1.2 - - - - - - -
03/10:30pm 5.2 SW 7 9 1021.9 - 1.2 - - - - - - -
03/10:00pm 6.0 W 9 13 1022.1 - 1.2 - - - - - - -
03/09:30pm 7.0 SW 15 20 1022.1 - 1.2 - - - - - - -
03/09:00pm 6.3 WSW 11 15 1021.7 - 1.2 - - - - - - -
03/08:30pm 6.2 WSW 9 11 1021.5 - 1.2 - - - - - - -
03/08:00pm 6.5 W 15 21 1021.6 - 1.2 - - - - - - -
03/07:30pm 5.8 SW 19 25 1021.4 - 1.2 - - - - - - -
03/07:27pm 5.9 SW 20 27 1021.4 - 1.2 - - - - - - -
03/07:22pm 6.6 WSW 15 27 1021.4 - 1.0 - - - - - - -
03/07:00pm 6.2 WSW 12 17 1020.8 - 0.8 - - - - - - -
03/06:30pm 5.8 W 10 15 1020.3 - 0.8 - - - - - - -
03/06:00pm 6.2 W 15 19 1020.1 - 0.8 - - - - - - -
03/05:30pm 7.0 WSW 17 31 1019.7 - 0.8 - - - - - - -
03/05:28pm 7.2 WSW 15 31 1019.6 - 0.8 - - - - - - -
03/05:00pm 5.9 SW 16 23 1019.1 - 0.8 - - - - - - -
03/04:50pm 6.6 WSW 15 23 1019.3 - 0.8 - - - - - - -
03/04:30pm 7.0 WSW 17 22 1018.7 - 0.8 - - - - - - -
03/04:00pm 7.6 WSW 18 24 1018.4 - 0.8 - - - - - - -
03/03:30pm 7.1 WSW 15 19 1018.3 - 0.8 - - - - - - -
03/03:19pm 5.8 W 22 32 1018.3 - 0.8 - - - - - - -
03/03:14pm 5.7 WSW 24 33 1018.3 - 0.8 - - - - - - -
03/03:00pm 5.4 SW 21 31 1018.0 - 0.8 Rain - - - - - -
03/02:47pm 8.4 WSW 19 30 1017.4 - 0.0 - - - - - - -
03/02:30pm 10.0 WSW 20 29 1017.3 - 0.0 - - - - - - -
03/02:15pm 9.4 WSW 22 32 1017.0 - 0.0 - - - - - - -
03/02:00pm 9.0 W 22 29 1016.9 - 0.0 - - - - - - -
03/01:46pm 8.0 WSW 22 30 1016.9 - 0.0 - - - - - - -
03/01:43pm 7.8 SW 23 31 1017.0 - 0.0 - - - - - - -
03/01:30pm 9.2 WSW 24 33 1016.4 - 0.0 - - - - - - -
03/01:00pm 9.0 WSW 27 35 1016.3 - 0.0 - - - - - - -
03/12:41pm 9.0 W 19 29 1016.1 - 0.0 - - - - - - -
03/12:30pm 8.6 W 20 26 1016.1 - 0.0 - - - - - - -
03/12:09pm 7.8 W 24 34 1016.0 - 0.0 - - - - - - -
03/12:00pm 7.7 WSW 24 34 1015.9 - 0.0 - - - - - - -
03/11:43am 8.6 WSW 23 33 1015.9 - 0.0 - - - - - - -
03/11:30am 8.8 WSW 23 31 1015.8 - 0.0 - - - - - - -
03/11:15am 8.2 WSW 25 35 1015.8 - 0.0 - - - - - - -
03/11:00am 8.6 WSW 25 35 1015.2 - 0.0 - - - - - - -
03/10:31am 8.3 WSW 24 37 1014.9 - 0.0 - - - - - - -
03/10:30am 8.0 WSW 24 31 1014.9 - 0.0 - - - - - - -
03/10:00am 7.1 WSW 27 41 1014.5 - 0.0 - - - - - - -
03/09:37am 8.4 WSW 26 48 1014.2 - 0.0 - - - - - - -
03/09:36am 8.5 WSW 26 36 1013.9 - 0.0 - - - - - - -
03/09:30am 7.5 WSW 25 34 1013.6 - 0.0 - - - - - - -
03/09:02am 6.8 WSW 23 33 1013.2 - 0.0 - - - - - - -
03/09:00am 6.8 WSW 24 33 1013.2 - 15.6 Recent precip. - - - - - -
03/08:32am 6.5 WSW 26 39 1012.7 - 15.4 - - - - - - -
03/08:30am 7.1 WSW 25 33 1012.5 - 15.4 - - - - - - -
03/08:00am 6.9 WSW 30 43 1011.8 - 15.4 - - - - - - -
03/07:57am 6.9 WSW 29 43 1011.6 - 15.4 - - - - - - -
03/07:55am 7.0 WSW 28 43 1011.4 - 15.4 - - - - - - -
03/07:30am 7.0 WSW 23 33 1010.5 - 15.4 - - - - - - -
03/07:00am 5.4 WSW 28 40 1010.7 - 15.4 - - - - - - -
03/06:33am 6.1 WSW 27 37 1009.6 - 15.2 - - - - - - -
03/06:30am 6.0 WSW 28 37 1009.6 - 15.2 - - - - - - -
03/06:23am 6.2 WSW 24 37 1009.7 - 15.2 - - - - - - -
03/06:01am 6.7 WSW 21 33 1008.8 - 15.2 - - - - - - -
03/06:00am 6.7 WSW 21 27 1009.0 - 15.2 Rain - - - - - -
03/05:30am 6.5 WSW 27 38 1008.7 - 15.0 - - - - - - -
03/05:00am 7.6 W 24 34 1008.1 - 14.8 - - - - - - -
03/04:56am 8.0 W 21 32 1007.8 - 14.8 - - - - - - -
03/04:30am 7.3 WSW 23 32 1007.9 - 14.8 - - - - - - -
03/04:15am 7.7 W 20 29 1007.8 - 14.6 - - - - - - -
03/04:00am 7.6 WNW 22 33 1007.3 - 14.0 - - - - - - -
03/03:40am 7.8 WNW 22 33 1006.6 - 13.2 - - - - - - -
03/03:30am 7.5 WNW 21 28 1007.0 - 13.2 - - - - - - -
03/03:00am 7.1 WNW 27 39 1006.8 - 12.2 Rain - - - - - -
03/02:50am 7.4 WNW 24 35 1007.1 - 12.0 - - - - - - -
03/02:30am 7.7 WNW 21 30 1007.2 - 10.6 - - - - - - -
03/02:00am 8.4 WNW 25 37 1006.6 - 7.6 - - - - - - -
03/01:42am 8.8 NW 27 38 1006.5 - 7.0 - - - - - - -
03/01:30am 9.1 NW 28 38 1006.3 - 7.0 - - - - - - -
03/01:00am 8.8 NW 27 40 1006.3 - 7.0 - - - - - - -
03/12:34am 8.6 NW 27 38 1006.5 - 7.0 - - - - - - -
03/12:30am 8.7 NW 27 36 1006.6 - 7.0 - - - - - - -
03/12:00am 8.6 NW 23 34 1006.9 - 7.0 - - - - - - -
 
Date/Time
EST
Temp

°C
Wind Pressure Rain
since 9am
mm
Weather Cloud Vis
km
Sea
Height
m
Swell
Dir
 
Speed
knots
Gust
knots
hPa Trend Height
m
Period
s
Dir
02/11:36pm 8.5 NW 25 36 1007.1 - 7.0 - - - - - - -
02/11:30pm 8.6 NW 26 35 1007.2 - 7.0 - - - - - - -
02/11:01pm 8.7 NW 23 34 1007.2 - 7.0 - - - - - - -
02/11:00pm 8.5 NW 22 31 1007.2 - 7.0 - - - - - - -
02/10:35pm 8.7 NW 26 42 1007.5 - 7.0 - - - - - - -
02/10:30pm 8.7 NW 26 35 1007.6 - 7.0 - - - - - - -
02/10:03pm 8.6 NW 21 31 1007.5 - 7.0 - - - - - - -
02/10:00pm 8.6 NW 21 30 1007.7 - 7.0 - - - - - - -
02/09:30pm 8.6 NW 20 24 1008.1 - 7.0 - - - - - - -
02/09:00pm 8.8 WNW 20 27 1008.2 - 7.0 - - - - - - -
02/08:30pm 8.7 WNW 14 21 1008.2 - 7.0 - - - - - - -
02/08:04pm 8.6 W 23 33 1008.3 - 7.0 - - - - - - -
02/08:00pm 8.7 W 23 33 1008.2 - 7.0 - - - - - - -
02/07:36pm 8.8 WNW 15 26 1008.5 - 6.0 - - - - - - -
02/07:30pm 8.7 W 12 18 1008.4 - 6.0 - - - - - - -
02/07:00pm 8.8 WNW 14 20 1008.1 - 5.2 - - - - - - -
02/06:30pm 8.5 W 14 21 1008.3 - 5.2 - - - - - - -
02/06:00pm 8.6 WNW 13 21 1008.0 - 4.6 Recent precip. - - - - - -
02/05:30pm 8.4 W 17 23 1007.7 - 4.4 - - - - - - -
02/05:17pm 8.4 W 20 27 1007.7 - 4.4 - - - - - - -
02/05:00pm 8.7 WNW 13 17 1007.6 - 3.8 - - - - - - -
02/04:31pm 8.7 W 16 26 1007.5 - 3.2 - - - - - - -
02/04:30pm 8.6 W 17 26 1007.5 - 3.2 - - - - - - -
02/04:00pm 9.4 WNW 22 34 1007.0 - 0.6 - - - - - - -
02/03:32pm 11.9 NW 24 35 1005.7 - 0.0 - - - - - - -
02/03:30pm 11.9 NW 23 32 1005.7 - 0.0 - - - - - - -
02/03:00pm 11.8 NW 24 39 1005.6 - 0.0 - - - - - - -
02/02:35pm 12.2 NW 26 37 1005.7 - 0.0 - - - - - - -
02/02:30pm 11.5 NW 28 37 1005.7 - 0.0 - - - - - - -
02/02:15pm 12.4 NW 26 36 1005.9 - 0.0 - - - - - - -
02/02:00pm 12.2 NW 27 35 1005.9 - 0.0 - - - - - - -
02/01:31pm 12.3 NW 24 34 1006.2 - 0.0 - - - - - - -
02/01:30pm 12.1 NW 25 34 1006.2 - 0.0 - - - - - - -
02/01:05pm 12.1 NW 24 34 1006.7 - 0.0 - - - - - - -
02/01:00pm 11.9 NW 25 34 1006.7 - 0.0 - - - - - - -
02/12:32pm 11.6 WNW 22 32 1007.4 - 0.0 - - - - - - -
02/12:30pm 11.8 NW 22 31 1007.5 - 0.0 - - - - - - -
02/12:03pm 11.4 NW 20 32 1008.2 - 0.0 - - - - - - -
02/12:00pm 11.5 NW 21 29 1008.3 - 0.0 - - - - - - -
02/11:30am 11.1 NW 19 27 1009.2 - 0.0 - - - - - - -
02/11:00am 10.4 NW 20 31 1009.9 - 0.0 - - - - - - -
02/10:47am 10.5 NW 18 29 1010.0 - 0.0 - - - - - - -
02/10:30am 10.0 NW 21 28 1010.2 - 0.0 - - - - - - -
02/10:00am 9.6 NW 19 27 1010.3 - 0.0 - - - - - - -
02/09:30am 9.1 NW 15 24 1010.2 - 0.0 - - - - - - -
02/09:00am 7.6 NW 15 21 1010.6 - 0.4 - - - - - - -
02/08:30am 7.2 NW 13 19 1011.0 - 0.4 - - - - - - -
02/08:00am 6.9 NW 11 17 1011.3 - 0.4 - - - - - - -
02/07:30am 6.8 NW 11 16 1011.3 - 0.4 - - - - - - -
02/07:00am 6.7 NW 10 14 1011.4 - 0.4 - - - - - - -
02/06:30am 6.7 NW 9 13 1011.5 - 0.4 - - - - - - -
02/06:00am 6.6 NW 9 12 1011.5 - 0.4 - - - - - - -
02/05:30am 6.5 NW 8 11 1011.5 - 0.4 - - - - - - -
02/05:00am 6.5 NW 8 10 1011.7 - 0.4 - - - - - - -
02/04:30am 6.5 NW 7 10 1011.9 - 0.4 - - - - - - -
02/04:00am 6.3 NW 8 9 1012.4 - 0.4 - - - - - - -
02/03:30am 6.4 NW 8 11 1012.8 - 0.4 - - - - - - -
02/03:00am 6.4 NW 8 11 1013.1 - 0.4 - - - - - - -
02/02:30am 6.3 NW 7 10 1013.5 - 0.4 - - - - - - -
02/02:00am 6.3 NW 8 10 1013.6 - 0.4 - - - - - - -
02/01:30am 6.4 NW 7 9 1013.8 - 0.4 - - - - - - -
02/01:00am 6.6 NW 8 10 1014.2 - 0.4 - - - - - - -
02/12:30am 6.4 NW 8 11 1014.4 - 0.4 - - - - - - -
02/12:00am 6.5 NW 7 10 1014.6 - 0.4 - - - - - - -
 
Date/Time
EST
Temp

°C
Wind Pressure Rain
since 9am
mm
Weather Cloud Vis
km
Sea
Height
m
Swell
Dir
 
Speed
knots
Gust
knots
hPa Trend Height
m
Period
s
Dir
01/11:30pm 6.2 NW 5 7 1014.6 - 0.4 - - - - - - -
01/11:00pm 6.8 NW 8 11 1014.7 - 0.4 - - - - - - -
01/10:30pm 6.7 NW 7 10 1015.0 - 0.4 - - - - - - -
01/10:00pm 6.4 NW 6 9 1015.0 - 0.4 - - - - - - -
01/09:30pm 5.8 NW 4 6 1015.0 - 0.4 - - - - - - -
01/09:00pm 5.8 NW 4 5 1015.2 - 0.4 - - - - - - -
01/08:30pm 6.5 NW 5 6 1015.1 - 0.4 - - - - - - -
01/08:00pm 7.4 NW 8 10 1015.1 - 0.4 - - - - - - -
01/07:30pm 7.0 NW 7 9 1015.3 - 0.4 - - - - - - -
01/07:00pm 7.5 NW 6 9 1015.1 - 0.4 - - - - - - -
01/06:30pm 7.8 WNW 5 9 1015.0 - 0.2 - - - - - - -
01/06:00pm 8.0 NW 7 9 1014.5 - 0.2 - - - - - - -
01/05:30pm 7.7 WNW 6 7 1014.2 - 0.2 - - - - - - -
01/05:00pm 8.7 WNW 6 8 1013.8 - 0.2 - - - - - - -
01/04:30pm 8.9 WSW 11 16 1013.6 - 0.2 - - - - - - -
01/04:00pm 10.3 W 10 15 1013.5 - 0.2 - - - - - - -
01/03:30pm 10.4 W 14 18 1013.3 - 0.2 - - - - - - -
01/03:00pm 10.4 W 15 20 1013.0 - 0.2 - - - - - - -
01/02:30pm 11.1 W 16 21 1012.8 - 0.2 - - - - - - -
01/02:00pm 10.7 W 16 20 1012.6 - 0.2 - - - - - - -
01/01:30pm 10.8 W 17 21 1012.6 - 0.2 - - - - - - -
01/01:00pm 11.1 WSW 17 22 1012.6 - 0.2 - - - - - - -
01/12:30pm 10.5 WSW 17 22 1012.8 - 0.2 - - - - - - -
01/12:00pm 10.3 WSW 17 23 1012.6 - 0.2 - - - - - - -
01/11:30am 10.8 WSW 18 25 1012.6 - 0.2 - - - - - - -
01/11:00am 9.8 W 13 19 1012.5 - 0.2 - - - - - - -
01/10:30am 8.8 W 15 20 1012.1 - 0.2 - - - - - - -
01/10:21am 8.3 WSW 19 29 1012.2 - 0.2 - - - - - - -
01/10:00am 9.1 WSW 13 24 1011.6 - 0.2 - - - - - - -
01/09:32am 8.7 WSW 17 28 1010.8 - 0.2 - - - - - - -
01/09:30am 8.6 WSW 18 28 1010.8 - 0.2 - - - - - - -
01/09:22am 8.8 WSW 17 28 1010.8 - 0.0 - - - - - - -
01/09:00am 8.8 WSW 16 22 1010.2 - 4.0 Recent precip. - - - - - -
01/08:30am 8.8 WSW 21 29 1009.7 - 3.8 - - - - - - -
01/08:03am 9.3 WNW 25 36 1009.0 - 2.8 - - - - - - -
01/08:00am 9.6 WNW 25 36 1008.9 - 2.6 - - - - - - -
01/07:59am 10.3 WNW 24 36 1008.8 - 2.4 - - - - - - -

Other Formats:

Comma delimited format used in spreadsheet applications
http://www.bom.gov.au/fwo/IDV60701/IDV60701.94911.axf

JavaScript Object Notation format (JSON) in row-major order
http://www.bom.gov.au/fwo/IDV60701/IDV60701.94911.json